createdAt,value
2022-11-29T00:00:16.517Z,72.00
2022-11-29T00:03:18.879Z,72.00
2022-11-29T00:06:30.170Z,72.63
2022-11-29T00:09:32.464Z,72.45
2022-11-29T00:12:34.727Z,72.11
2022-11-29T00:15:37.908Z,72.65
2022-11-29T00:18:40.189Z,73.31
2022-11-29T00:21:42.470Z,73.29
2022-11-29T00:24:44.906Z,72.76
2022-11-29T00:27:47.333Z,72.50
2022-11-29T00:30:49.692Z,72.35
2022-11-29T00:33:52.604Z,72.28
2022-11-29T00:36:54.944Z,72.20
2022-11-29T00:39:57.343Z,71.91
2022-11-29T00:42:59.601Z,72.18
2022-11-29T00:46:04.313Z,72.00
2022-11-29T00:49:06.626Z,72.29
2022-11-29T00:52:08.903Z,72.34
2022-11-29T00:55:11.245Z,72.83
2022-11-29T00:58:13.655Z,72.60
2022-11-29T01:01:16.364Z,72.32
2022-11-29T01:04:18.975Z,72.00
2022-11-29T01:07:21.225Z,71.82
2022-11-29T01:10:25.561Z,72.42
2022-11-29T01:13:27.864Z,71.77
2022-11-29T01:16:33.798Z,71.86
2022-11-29T01:19:38.024Z,71.37
2022-11-29T01:22:40.369Z,71.30
2022-11-29T01:25:42.673Z,71.23
2022-11-29T01:28:50.704Z,71.56
2022-11-29T01:31:53.081Z,71.07
2022-11-29T01:34:55.372Z,71.52
2022-11-29T01:37:57.709Z,72.67
2022-11-29T01:41:06.650Z,71.39
2022-11-29T01:44:12.015Z,71.16
2022-11-29T01:47:14.319Z,70.89
2022-11-29T01:50:16.965Z,70.99
2022-11-29T01:53:20.424Z,70.87
2022-11-29T01:56:23.267Z,70.76
2022-11-29T01:59:27.523Z,70.82
2022-11-29T02:02:38.776Z,71.33
2022-11-29T02:05:43.647Z,71.48
2022-11-29T02:08:46.088Z,71.11
2022-11-29T02:12:14.536Z,71.49
2022-11-29T02:15:29.430Z,70.21
2022-11-29T02:18:47.169Z,70.95
2022-11-29T02:21:53.454Z,71.00
2022-11-29T02:25:11.027Z,71.08
2022-11-29T02:28:48.850Z,71.13
2022-11-29T02:32:09.693Z,70.42
2022-11-29T02:35:35.745Z,70.75
2022-11-29T02:38:59.726Z,70.51
2022-11-29T02:42:29.951Z,70.70
2022-11-29T02:46:00.871Z,70.60
2022-11-29T02:49:12.223Z,70.33
2022-11-29T02:52:25.454Z,70.14
2022-11-29T02:55:33.958Z,69.88
2022-11-29T02:58:39.192Z,70.29
2022-11-29T03:02:17.183Z,69.89
2022-11-29T03:05:45.096Z,70.11
2022-11-29T03:08:57.203Z,70.64
2022-11-29T03:12:19.740Z,69.81
2022-11-29T03:15:36.610Z,69.83
2022-11-29T03:18:38.865Z,70.10
2022-11-29T03:21:55.771Z,70.74
2022-11-29T03:25:22.755Z,70.92
2022-11-29T03:28:42.012Z,70.76
2022-11-29T03:32:16.729Z,70.41
2022-11-29T03:35:24.551Z,70.78
2022-11-29T03:38:57.171Z,71.24
2022-11-29T03:42:06.227Z,70.76
2022-11-29T03:45:15.677Z,71.34
2022-11-29T03:48:22.722Z,70.40
2022-11-29T03:51:56.568Z,70.77
2022-11-29T03:55:23.949Z,70.62
2022-11-29T03:58:34.980Z,70.63
2022-11-29T04:02:09.521Z,70.76
2022-11-29T04:05:33.310Z,70.91
2022-11-29T04:08:38.570Z,70.27
2022-11-29T04:12:07.337Z,70.24
2022-11-29T04:15:34.242Z,70.58
2022-11-29T04:18:51.725Z,70.50
2022-11-29T04:22:19.067Z,69.84
2022-11-29T04:25:27.229Z,69.66
2022-11-29T04:28:48.971Z,70.47
2022-11-29T04:32:20.417Z,69.65
2022-11-29T04:35:50.683Z,69.79
2022-11-29T04:39:32.478Z,70.26
2022-11-29T04:42:49.666Z,70.97
2022-11-29T04:46:21.645Z,70.93
2022-11-29T04:49:33.036Z,71.51
2022-11-29T04:52:38.493Z,71.31
2022-11-29T04:55:54.970Z,70.57
2022-11-29T04:59:05.048Z,70.39
2022-11-29T05:02:32.595Z,71.05
2022-11-29T05:05:55.023Z,70.87
2022-11-29T05:08:57.269Z,71.46
2022-11-29T05:12:17.715Z,71.85
2022-11-29T05:15:45.237Z,71.41
2022-11-29T05:19:29.175Z,71.75
2022-11-29T05:22:58.762Z,72.07
2022-11-29T05:26:13.259Z,71.94
2022-11-29T05:29:21.911Z,71.89
2022-11-29T05:32:45.563Z,72.32
2022-11-29T05:36:17.138Z,71.39
2022-11-29T05:43:02.410Z,71.16
2022-11-29T05:46:12.898Z,70.65
2022-11-29T05:49:27.090Z,70.52
2022-11-29T05:52:32.310Z,70.09
2022-11-29T05:55:48.389Z,70.95
2022-11-29T05:58:54.664Z,70.66
2022-11-29T06:02:36.077Z,69.42
2022-11-29T06:05:47.561Z,69.24
2022-11-29T06:09:00.502Z,69.62
2022-11-29T06:12:06.871Z,69.73
2022-11-29T06:15:18.253Z,68.33
2022-11-29T06:18:46.440Z,68.40
2022-11-29T06:22:11.414Z,68.30
2022-11-29T06:25:27.704Z,67.79
2022-11-29T06:28:51.286Z,67.86
2022-11-29T06:32:03.699Z,68.59
2022-11-29T06:35:24.196Z,68.30
2022-11-29T06:38:29.668Z,69.29
2022-11-29T06:41:32.323Z,68.93
2022-11-29T06:44:34.900Z,69.68
2022-11-29T06:47:50.725Z,68.94
2022-11-29T06:51:21.395Z,68.43
2022-11-29T06:54:47.204Z,69.25
2022-11-29T06:58:04.929Z,69.93
2022-11-29T07:01:29.100Z,70.48
2022-11-29T07:04:45.719Z,70.42
2022-11-29T07:07:48.963Z,70.68
2022-11-29T07:10:54.075Z,69.60
2022-11-29T07:13:56.703Z,69.64
2022-11-29T07:17:15.639Z,69.43
2022-11-29T07:20:39.944Z,68.06
2022-11-29T07:23:42.269Z,68.70
2022-11-29T07:26:59.732Z,70.08
2022-11-29T07:30:16.275Z,70.36
2022-11-29T07:33:53.945Z,69.92
2022-11-29T07:37:14.583Z,69.95
2022-11-29T07:40:37.781Z,70.56
2022-11-29T07:44:01.524Z,71.26
2022-11-29T07:47:03.889Z,71.07
2022-11-29T07:50:06.717Z,70.24
2022-11-29T07:53:16.927Z,70.01
2022-11-29T07:56:19.165Z,70.81
2022-11-29T07:59:21.547Z,69.57
2022-11-29T08:02:30.877Z,69.89
2022-11-29T08:05:33.254Z,68.80
2022-11-29T08:08:40.609Z,69.33
2022-11-29T08:11:48.973Z,69.66
2022-11-29T08:14:51.207Z,68.67
2022-11-29T08:17:53.451Z,68.60
2022-11-29T08:20:55.710Z,68.74
2022-11-29T08:23:58.008Z,68.51
2022-11-29T08:27:00.264Z,68.50
2022-11-29T08:30:03.103Z,68.57
2022-11-29T08:33:05.565Z,67.70
2022-11-29T08:36:18.996Z,68.23
2022-11-29T08:39:21.375Z,67.65
2022-11-29T08:42:23.891Z,68.05
2022-11-29T08:45:26.288Z,68.24
2022-11-29T08:48:30.892Z,68.02
2022-11-29T08:51:33.157Z,67.66
2022-11-29T08:54:35.348Z,67.84
2022-11-29T08:57:41.127Z,68.38
2022-11-29T09:00:46.543Z,67.75
2022-11-29T09:04:03.084Z,66.80
2022-11-29T09:07:05.338Z,68.51
2022-11-29T09:10:09.043Z,67.16
2022-11-29T09:13:12.263Z,66.50
2022-11-29T09:16:20.538Z,66.36
2022-11-29T09:19:23.109Z,67.06
2022-11-29T09:22:25.475Z,67.31
2022-11-29T09:25:27.876Z,68.12
2022-11-29T09:28:30.550Z,66.69
2022-11-29T09:31:33.743Z,66.92
2022-11-29T09:34:36.179Z,67.50
2022-11-29T09:37:42.479Z,66.86
2022-11-29T09:40:54.260Z,67.13
2022-11-29T09:44:27.522Z,65.94
2022-11-29T09:48:03.721Z,64.93
2022-11-29T09:51:18.381Z,65.74
2022-11-29T09:54:23.642Z,66.20
2022-11-29T09:57:27.280Z,66.40
2022-11-29T10:00:31.233Z,66.44
2022-11-29T10:03:45.249Z,66.05
2022-11-29T10:06:57.209Z,64.74
2022-11-29T10:10:03.898Z,65.58
2022-11-29T10:13:28.186Z,68.59
2022-11-29T10:16:43.536Z,61.45
2022-11-29T10:19:49.537Z,57.61
2022-11-29T10:22:56.168Z,58.41
2022-11-29T10:25:58.953Z,59.27
2022-11-29T10:29:01.547Z,60.54
2022-11-29T10:32:12.352Z,61.27
2022-11-29T10:35:16.899Z,61.55
2022-11-29T10:38:34.764Z,62.20
2022-11-29T10:41:37.103Z,63.55
2022-11-29T10:44:39.372Z,63.32
2022-11-29T10:47:41.721Z,63.84
2022-11-29T10:50:45.897Z,63.87
2022-11-29T10:53:49.183Z,64.93
2022-11-29T10:56:52.264Z,64.14
2022-11-29T11:00:11.738Z,63.45
2022-11-29T11:03:29.885Z,63.30
2022-11-29T11:06:52.805Z,63.81
2022-11-29T11:09:56.963Z,67.76
2022-11-29T11:13:19.890Z,62.74
2022-11-29T11:16:25.868Z,60.13
2022-11-29T11:19:35.326Z,59.52
2022-11-29T11:22:40.295Z,59.64
2022-11-29T11:25:42.611Z,61.58
2022-11-29T11:29:02.314Z,63.46
2022-11-29T11:32:05.729Z,64.56
2022-11-29T11:35:22.304Z,65.25
2022-11-29T11:38:24.615Z,65.96
2022-11-29T11:41:48.364Z,65.96
2022-11-29T11:44:53.438Z,66.51
2022-11-29T11:47:58.500Z,66.54
2022-11-29T11:51:01.689Z,66.55
2022-11-29T11:54:04.059Z,66.23
2022-11-29T11:57:17.149Z,66.19
2022-11-29T12:01:03.453Z,65.82
2022-11-29T12:04:33.985Z,66.32
2022-11-29T12:08:07.474Z,67.54
2022-11-29T12:11:08.105Z,66.99
2022-11-29T12:14:18.887Z,67.87
2022-11-29T12:17:49.209Z,67.01
2022-11-29T12:20:56.345Z,66.06
2022-11-29T12:24:21.692Z,66.71
2022-11-29T12:27:24.051Z,67.35
2022-11-29T12:30:26.357Z,67.04
2022-11-29T12:33:38.766Z,66.76
2022-11-29T12:37:26.030Z,67.92
2022-11-29T12:40:34.689Z,67.40
2022-11-29T12:44:04.084Z,67.04
2022-11-29T12:47:38.337Z,67.42
2022-11-29T12:51:02.167Z,65.91
2022-11-29T12:54:38.101Z,67.13
2022-11-29T12:57:54.325Z,67.76
2022-11-29T13:01:19.748Z,68.33
2022-11-29T13:04:40.812Z,67.23
2022-11-29T13:08:04.806Z,66.81
2022-11-29T13:11:31.580Z,65.82
2022-11-29T13:14:49.719Z,67.07
2022-11-29T13:17:55.082Z,67.07
2022-11-29T13:21:15.955Z,66.87
2022-11-29T13:24:26.152Z,67.75
2022-11-29T13:27:34.865Z,67.32
2022-11-29T13:30:38.755Z,66.83
2022-11-29T13:33:59.342Z,66.58
2022-11-29T13:37:07.576Z,67.73
2022-11-29T13:40:22.496Z,66.90
2022-11-29T13:43:33.860Z,67.28
2022-11-29T13:46:39.230Z,67.46
2022-11-29T13:50:04.505Z,67.91
2022-11-29T13:53:19.917Z,67.44
2022-11-29T13:56:32.797Z,67.64
2022-11-29T13:59:40.549Z,68.06
2022-11-29T14:02:48.338Z,68.05
2022-11-29T14:05:51.584Z,68.39
2022-11-29T14:12:35.894Z,68.80
2022-11-29T14:15:38.505Z,68.22
2022-11-29T14:19:10.195Z,68.49
2022-11-29T14:22:20.861Z,68.98
2022-11-29T14:25:50.669Z,68.30
2022-11-29T14:28:47.364Z,68.73
2022-11-29T14:31:52.015Z,66.80
2022-11-29T14:35:12.543Z,66.88
2022-11-29T14:38:31.162Z,66.91
2022-11-29T14:41:54.494Z,67.01
2022-11-29T14:45:04.706Z,68.02
2022-11-29T14:48:25.641Z,67.89
2022-11-29T14:51:30.768Z,68.33
2022-11-29T14:54:33.831Z,66.83
2022-11-29T14:57:48.293Z,67.80
2022-11-29T15:04:27.513Z,68.63
2022-11-29T15:07:30.857Z,70.23
2022-11-29T15:10:36.585Z,69.29
2022-11-29T15:13:45.802Z,69.57
2022-11-29T15:17:04.797Z,69.57
2022-11-29T15:20:48.474Z,70.72
2022-11-29T15:23:58.832Z,71.42
2022-11-29T15:27:02.743Z,71.35
2022-11-29T15:30:34.673Z,71.36
2022-11-29T15:33:39.807Z,71.28
2022-11-29T15:36:43.920Z,71.55
2022-11-29T15:39:46.169Z,71.25
2022-11-29T15:43:02.666Z,70.88
2022-11-29T15:46:05.107Z,70.80
2022-11-29T15:49:28.060Z,70.58
2022-11-29T15:52:33.910Z,70.98
2022-11-29T15:55:36.446Z,71.07
2022-11-29T15:58:39.024Z,71.09
2022-11-29T16:01:43.257Z,71.81
2022-11-29T16:04:47.385Z,71.18
2022-11-29T16:07:53.733Z,71.87
2022-11-29T16:10:56.295Z,71.97
2022-11-29T16:14:12.820Z,71.90
2022-11-29T16:17:15.406Z,71.49
2022-11-29T16:20:18.788Z,72.12
2022-11-29T16:23:21.107Z,72.04
2022-11-29T16:26:24.789Z,71.75
2022-11-29T16:29:30.417Z,71.96
2022-11-29T16:32:35.503Z,72.00
2022-11-29T16:35:37.848Z,71.78
2022-11-29T16:38:46.186Z,71.82
2022-11-29T16:42:26.182Z,71.25
2022-11-29T16:45:48.945Z,71.48
2022-11-29T16:48:52.776Z,71.28
2022-11-29T16:51:55.067Z,70.78
2022-11-29T16:54:57.480Z,71.41
2022-11-29T16:57:59.868Z,71.20
2022-11-29T17:01:19.689Z,71.24
2022-11-29T17:04:24.362Z,71.40
2022-11-29T17:07:30.208Z,70.80
2022-11-29T17:10:32.791Z,71.75
2022-11-29T17:13:35.027Z,71.36
2022-11-29T17:16:37.366Z,71.23
2022-11-29T17:19:39.649Z,71.43
2022-11-29T17:22:42.045Z,71.93
2022-11-29T17:25:44.440Z,72.16
2022-11-29T17:28:48.353Z,71.75
2022-11-29T17:31:50.831Z,72.07
2022-11-29T17:34:53.283Z,71.29
2022-11-29T17:37:55.584Z,71.75
2022-11-29T17:40:58.050Z,71.22
2022-11-29T17:44:00.913Z,71.53
2022-11-29T17:47:03.186Z,71.44
2022-11-29T17:50:06.104Z,71.85
2022-11-29T17:53:08.382Z,71.81
2022-11-29T17:56:12.807Z,72.37
2022-11-29T17:59:15.184Z,71.64
2022-11-29T18:02:17.563Z,72.79
2022-11-29T18:05:20.137Z,72.27
2022-11-29T18:08:22.379Z,71.44
2022-11-29T18:11:27.988Z,71.47
2022-11-29T18:14:31.113Z,71.43
2022-11-29T18:17:33.532Z,71.60
2022-11-29T18:20:35.802Z,71.70
2022-11-29T18:23:41.227Z,71.37
2022-11-29T18:26:43.893Z,71.83
2022-11-29T18:29:46.382Z,71.49
2022-11-29T18:32:48.884Z,71.52
2022-11-29T18:35:51.473Z,70.87
2022-11-29T18:39:05.035Z,71.43
2022-11-29T18:42:07.390Z,71.10
2022-11-29T18:45:10.023Z,71.26
2022-11-29T18:48:12.486Z,71.04
2022-11-29T18:51:16.930Z,71.39
2022-11-29T18:54:19.634Z,71.17
2022-11-29T18:57:21.983Z,70.71
2022-11-29T19:00:24.592Z,70.71
2022-11-29T19:03:27.220Z,71.18
2022-11-29T19:06:39.030Z,70.75
2022-11-29T19:09:42.311Z,71.19
2022-11-29T19:12:44.676Z,71.06
2022-11-29T19:15:54.240Z,70.94
2022-11-29T19:18:58.018Z,70.87
2022-11-29T19:22:00.675Z,70.63
2022-11-29T19:25:02.959Z,70.78
2022-11-29T19:28:10.694Z,70.14
2022-11-29T19:31:17.879Z,70.75
2022-11-29T19:34:20.365Z,70.88
2022-11-29T19:37:22.681Z,70.83
2022-11-29T19:40:25.109Z,70.71
2022-11-29T19:43:27.678Z,71.06
2022-11-29T19:46:41.557Z,70.90
2022-11-29T19:49:46.755Z,71.13
2022-11-29T19:52:49.434Z,70.83
2022-11-29T19:55:51.707Z,70.62
2022-11-29T19:58:54.364Z,71.54
2022-11-29T20:01:59.477Z,71.24
2022-11-29T20:05:01.939Z,70.32
2022-11-29T20:08:04.393Z,70.42
2022-11-29T20:11:18.277Z,69.84
2022-11-29T20:14:20.725Z,69.83
2022-11-29T20:17:22.981Z,70.22
2022-11-29T20:20:25.319Z,69.78
2022-11-29T20:23:27.618Z,69.94
2022-11-29T20:26:31.268Z,69.81
2022-11-29T20:29:33.824Z,69.07
2022-11-29T20:32:36.448Z,69.40
2022-11-29T20:35:39.075Z,69.68
2022-11-29T20:38:51.377Z,70.02
2022-11-29T20:41:53.621Z,69.51
2022-11-29T20:44:57.404Z,69.17
2022-11-29T20:48:11.390Z,68.94
2022-11-29T20:51:13.915Z,68.84
2022-11-29T20:54:17.303Z,68.89
2022-11-29T20:57:19.576Z,69.83
2022-11-29T21:00:22.189Z,69.07
2022-11-29T21:03:24.973Z,69.67
2022-11-29T21:06:27.279Z,69.94
2022-11-29T21:09:29.596Z,69.81
2022-11-29T21:12:32.369Z,69.06
2022-11-29T21:15:34.908Z,69.35
2022-11-29T21:18:37.737Z,69.38
2022-11-29T21:21:58.794Z,68.31
2022-11-29T21:25:22.440Z,69.30
2022-11-29T21:28:29.275Z,69.03
2022-11-29T21:31:31.928Z,68.68
2022-11-29T21:34:34.932Z,69.21
2022-11-29T21:37:37.718Z,69.42
2022-11-29T21:40:40.081Z,68.61
2022-11-29T21:44:05.469Z,68.96
2022-11-29T21:47:04.924Z,69.20
2022-11-29T21:50:07.772Z,69.04
2022-11-29T21:53:10.191Z,68.40
2022-11-29T21:56:12.996Z,68.97
2022-11-29T21:59:15.256Z,69.20
2022-11-29T22:02:17.665Z,68.98
2022-11-29T22:05:20.024Z,68.66
2022-11-29T22:08:22.283Z,68.64
2022-11-29T22:11:36.698Z,69.17
2022-11-29T22:14:40.402Z,68.56
2022-11-29T22:17:42.679Z,68.55
2022-11-29T22:20:47.311Z,68.51
2022-11-29T22:23:49.781Z,68.60
2022-11-29T22:26:52.605Z,68.57
2022-11-29T22:29:54.990Z,68.81
2022-11-29T22:32:57.311Z,68.75
2022-11-29T22:36:07.517Z,68.65
2022-11-29T22:39:09.988Z,68.95
2022-11-29T22:42:12.253Z,68.99
2022-11-29T22:45:14.572Z,68.06
2022-11-29T22:48:16.828Z,68.48
2022-11-29T22:51:20.957Z,68.21
2022-11-29T22:54:23.245Z,68.50
2022-11-29T22:57:25.486Z,68.04
2022-11-29T23:00:27.755Z,68.25
2022-11-29T23:03:33.128Z,68.87
2022-11-29T23:06:41.420Z,68.46
2022-11-29T23:09:43.738Z,67.87
2022-11-29T23:12:47.660Z,68.13
2022-11-29T23:15:50.060Z,68.66
2022-11-29T23:18:53.619Z,68.85
2022-11-29T23:21:56.572Z,67.92
2022-11-29T23:24:58.861Z,67.99
2022-11-29T23:28:01.162Z,68.24
2022-11-29T23:31:03.620Z,67.72
2022-11-29T23:34:05.943Z,67.82
2022-11-29T23:37:08.217Z,67.83
2022-11-29T23:40:10.959Z,68.11
2022-11-29T23:43:13.302Z,67.92
2022-11-29T23:46:18.200Z,67.93
2022-11-29T23:49:20.500Z,67.78
2022-11-29T23:52:22.903Z,67.92
2022-11-29T23:55:25.756Z,68.16
2022-11-29T23:58:28.967Z,68.00
